sensor_id;sensor_type;location;lat;lon;timestamp;P1;P2;P0
66159;PMS5003;52960;50.810;20.620;2022-07-29T00:00:07;3;3;2
66159;PMS5003;52960;50.810;20.620;2022-07-29T00:07:18;5;4;3
66159;PMS5003;52960;50.810;20.620;2022-07-29T00:14:13;5;4;3
66159;PMS5003;52960;50.810;20.620;2022-07-29T00:21:02;5;4;3
66159;PMS5003;52960;50.810;20.620;2022-07-29T00:28:16;5;4;3
66159;PMS5003;52960;50.810;20.620;2022-07-29T00:42:21;6;5;3
66159;PMS5003;52960;50.810;20.620;2022-07-29T00:49:19;6;5;3
66159;PMS5003;52960;50.810;20.620;2022-07-29T00:56:17;6;5;3
66159;PMS5003;52960;50.810;20.620;2022-07-29T01:00:02;6;5;3
66159;PMS5003;52960;50.810;20.620;2022-07-29T01:07:20;5;5;3
66159;PMS5003;52960;50.810;20.620;2022-07-29T01:14:03;5;5;3
66159;PMS5003;52960;50.810;20.620;2022-07-29T01:21:24;5;5;3
66159;PMS5003;52960;50.810;20.620;2022-07-29T01:35:46;3;3;2
66159;PMS5003;52960;50.810;20.620;2022-07-29T01:42:30;3;3;2
66159;PMS5003;52960;50.810;20.620;2022-07-29T01:49:21;3;3;2
66159;PMS5003;52960;50.810;20.620;2022-07-29T01:56:08;3;3;2
66159;PMS5003;52960;50.810;20.620;2022-07-29T02:00:14;3;3;2
66159;PMS5003;52960;50.810;20.620;2022-07-29T02:07:23;3;3;2
66159;PMS5003;52960;50.810;20.620;2022-07-29T02:14:47;3;3;2
66159;PMS5003;52960;50.810;20.620;2022-07-29T02:21:16;3;3;2
66159;PMS5003;52960;50.810;20.620;2022-07-29T02:28:10;3;3;2
66159;PMS5003;52960;50.810;20.620;2022-07-29T02:35:25;4;3;2
66159;PMS5003;52960;50.810;20.620;2022-07-29T02:42:35;4;3;2
66159;PMS5003;52960;50.810;20.620;2022-07-29T02:49:40;4;3;2
66159;PMS5003;52960;50.810;20.620;2022-07-29T02:56:14;4;3;2
66159;PMS5003;52960;50.810;20.620;2022-07-29T03:00:40;4;3;2
66159;PMS5003;52960;50.810;20.620;2022-07-29T03:07:12;3;3;2
66159;PMS5003;52960;50.810;20.620;2022-07-29T03:14:23;3;3;2
66159;PMS5003;52960;50.810;20.620;2022-07-29T03:21:02;3;3;2
66159;PMS5003;52960;50.810;20.620;2022-07-29T03:28:03;3;3;2
66159;PMS5003;52960;50.810;20.620;2022-07-29T03:35:05;4;4;3
66159;PMS5003;52960;50.810;20.620;2022-07-29T03:42:24;4;4;3
66159;PMS5003;52960;50.810;20.620;2022-07-29T03:49:12;4;4;3
66159;PMS5003;52960;50.810;20.620;2022-07-29T03:56:42;4;4;3
66159;PMS5003;52960;50.810;20.620;2022-07-29T04:00:01;4;4;3
66159;PMS5003;52960;50.810;20.620;2022-07-29T04:07:29;3;2;1
66159;PMS5003;52960;50.810;20.620;2022-07-29T04:14:14;3;2;1
66159;PMS5003;52960;50.810;20.620;2022-07-29T04:21:06;3;2;1
66159;PMS5003;52960;50.810;20.620;2022-07-29T04:28:15;3;2;1
66159;PMS5003;52960;50.810;20.620;2022-07-29T04:35:03;3;2;2
66159;PMS5003;52960;50.810;20.620;2022-07-29T04:42:02;3;2;2
66159;PMS5003;52960;50.810;20.620;2022-07-29T04:49:07;3;2;2
66159;PMS5003;52960;50.810;20.620;2022-07-29T04:56:16;3;2;2
66159;PMS5003;52960;50.810;20.620;2022-07-29T05:00:08;3;2;2
66159;PMS5003;52960;50.810;20.620;2022-07-29T05:07:16;4;3;2
66159;PMS5003;52960;50.810;20.620;2022-07-29T05:14:16;4;3;2
66159;PMS5003;52960;50.810;20.620;2022-07-29T05:21:06;4;3;2
66159;PMS5003;52960;50.810;20.620;2022-07-29T05:28:18;4;3;2
66159;PMS5003;52960;50.810;20.620;2022-07-29T05:35:13;2;2;1
66159;PMS5003;52960;50.810;20.620;2022-07-29T05:42:21;2;2;1
66159;PMS5003;52960;50.810;20.620;2022-07-29T05:49:20;2;2;1
66159;PMS5003;52960;50.810;20.620;2022-07-29T05:56:16;2;2;1
66159;PMS5003;52960;50.810;20.620;2022-07-29T06:00:10;2;2;1
66159;PMS5003;52960;50.810;20.620;2022-07-29T06:14:04;1;1;1
66159;PMS5003;52960;50.810;20.620;2022-07-29T06:21:11;1;1;1
66159;PMS5003;52960;50.810;20.620;2022-07-29T06:28:18;1;1;1
66159;PMS5003;52960;50.810;20.620;2022-07-29T06:42:32;1;1;0
66159;PMS5003;52960;50.810;20.620;2022-07-29T06:49:05;1;1;0
66159;PMS5003;52960;50.810;20.620;2022-07-29T06:56:05;1;1;0
66159;PMS5003;52960;50.810;20.620;2022-07-29T07:00:07;1;1;0
66159;PMS5003;52960;50.810;20.620;2022-07-29T07:14:12;0;0;0
66159;PMS5003;52960;50.810;20.620;2022-07-29T07:21:09;0;0;0
66159;PMS5003;52960;50.810;20.620;2022-07-29T07:28:06;0;0;0
66159;PMS5003;52960;50.810;20.620;2022-07-29T07:42:05;2;2;1
66159;PMS5003;52960;50.810;20.620;2022-07-29T07:49:21;2;2;1
66159;PMS5003;52960;50.810;20.620;2022-07-29T07:56:02;2;2;1
66159;PMS5003;52960;50.810;20.620;2022-07-29T08:00:05;2;2;1
66159;PMS5003;52960;50.810;20.620;2022-07-29T08:14:04;1;1;0
66159;PMS5003;52960;50.810;20.620;2022-07-29T08:21:19;1;1;0
66159;PMS5003;52960;50.810;20.620;2022-07-29T08:28:07;1;1;0
66159;PMS5003;52960;50.810;20.620;2022-07-29T08:35:16;1;1;0
66159;PMS5003;52960;50.810;20.620;2022-07-29T08:42:02;0;0;0
66159;PMS5003;52960;50.810;20.620;2022-07-29T08:49:18;0;0;0
66159;PMS5003;52960;50.810;20.620;2022-07-29T08:56:04;0;0;0
66159;PMS5003;52960;50.810;20.620;2022-07-29T09:00:12;0;0;0
66159;PMS5003;52960;50.810;20.620;2022-07-29T09:14:08;0;0;0
66159;PMS5003;52960;50.810;20.620;2022-07-29T09:28:05;0;0;0
66159;PMS5003;52960;50.810;20.620;2022-07-29T09:35:33;0;0;0
66159;PMS5003;52960;50.810;20.620;2022-07-29T09:42:33;3;2;1
66159;PMS5003;52960;50.810;20.620;2022-07-29T09:49:21;3;2;1
66159;PMS5003;52960;50.810;20.620;2022-07-29T09:56:04;3;2;1
66159;PMS5003;52960;50.810;20.620;2022-07-29T10:00:23;3;2;1
66159;PMS5003;52960;50.810;20.620;2022-07-29T10:14:18;5;2;1
66159;PMS5003;52960;50.810;20.620;2022-07-29T10:21:16;5;2;1
66159;PMS5003;52960;50.810;20.620;2022-07-29T10:28:16;5;2;1
66159;PMS5003;52960;50.810;20.620;2022-07-29T10:36:02;5;2;1
66159;PMS5003;52960;50.810;20.620;2022-07-29T10:42:05;3;3;1
66159;PMS5003;52960;50.810;20.620;2022-07-29T10:56:37;3;3;1
66159;PMS5003;52960;50.810;20.620;2022-07-29T11:00:37;3;3;1
66159;PMS5003;52960;50.810;20.620;2022-07-29T11:07:22;3;3;1
66159;PMS5003;52960;50.810;20.620;2022-07-29T11:14:02;3;3;2
66159;PMS5003;52960;50.810;20.620;2022-07-29T11:21:39;3;3;2
66159;PMS5003;52960;50.810;20.620;2022-07-29T11:28:58;3;3;2
66159;PMS5003;52960;50.810;20.620;2022-07-29T11:35:33;3;3;2
66159;PMS5003;52960;50.810;20.620;2022-07-29T11:42:53;3;3;2
66159;PMS5003;52960;50.810;20.620;2022-07-29T11:49:22;3;3;2
66159;PMS5003;52960;50.810;20.620;2022-07-29T11:56:21;3;3;2
66159;PMS5003;52960;50.810;20.620;2022-07-29T12:00:26;3;3;2
66159;PMS5003;52960;50.810;20.620;2022-07-29T12:07:02;3;3;2
66159;PMS5003;52960;50.810;20.620;2022-07-29T12:14:33;6;3;2
66159;PMS5003;52960;50.810;20.620;2022-07-29T12:21:16;6;3;2
66159;PMS5003;52960;50.810;20.620;2022-07-29T12:28:18;6;3;2
66159;PMS5003;52960;50.810;20.620;2022-07-29T12:35:05;6;3;2
66159;PMS5003;52960;50.810;20.620;2022-07-29T12:42:11;5;3;2
66159;PMS5003;52960;50.810;20.620;2022-07-29T12:49:06;5;3;2
66159;PMS5003;52960;50.810;20.620;2022-07-29T12:56:29;5;3;2
66159;PMS5003;52960;50.810;20.620;2022-07-29T13:00:15;5;3;2
66159;PMS5003;52960;50.810;20.620;2022-07-29T13:07:25;5;3;2
66159;PMS5003;52960;50.810;20.620;2022-07-29T13:14:40;7;3;2
66159;PMS5003;52960;50.810;20.620;2022-07-29T13:21:15;7;3;2
66159;PMS5003;52960;50.810;20.620;2022-07-29T13:28:03;7;3;2
66159;PMS5003;52960;50.810;20.620;2022-07-29T13:35:13;7;3;2
66159;PMS5003;52960;50.810;20.620;2022-07-29T13:49:03;5;3;2
66159;PMS5003;52960;50.810;20.620;2022-07-29T13:56:07;5;3;2
66159;PMS5003;52960;50.810;20.620;2022-07-29T14:00:01;5;3;2
66159;PMS5003;52960;50.810;20.620;2022-07-29T14:07:03;5;3;2
66159;PMS5003;52960;50.810;20.620;2022-07-29T14:21:17;5;4;3
66159;PMS5003;52960;50.810;20.620;2022-07-29T14:28:03;5;4;3
66159;PMS5003;52960;50.810;20.620;2022-07-29T14:35:21;5;4;3
66159;PMS5003;52960;50.810;20.620;2022-07-29T14:49:21;5;4;2
66159;PMS5003;52960;50.810;20.620;2022-07-29T14:56:05;5;4;2
66159;PMS5003;52960;50.810;20.620;2022-07-29T15:00:09;5;4;2
66159;PMS5003;52960;50.810;20.620;2022-07-29T15:07:02;5;4;2
66159;PMS5003;52960;50.810;20.620;2022-07-29T15:21:20;3;3;2
66159;PMS5003;52960;50.810;20.620;2022-07-29T15:28:09;3;3;2
66159;PMS5003;52960;50.810;20.620;2022-07-29T15:35:15;3;3;2
66159;PMS5003;52960;50.810;20.620;2022-07-29T15:49:19;4;4;3
66159;PMS5003;52960;50.810;20.620;2022-07-29T15:56:17;4;4;3
66159;PMS5003;52960;50.810;20.620;2022-07-29T16:00:07;4;4;3
66159;PMS5003;52960;50.810;20.620;2022-07-29T16:07:03;4;4;3
66159;PMS5003;52960;50.810;20.620;2022-07-29T16:21:04;5;5;3
66159;PMS5003;52960;50.810;20.620;2022-07-29T16:28:03;5;5;3
66159;PMS5003;52960;50.810;20.620;2022-07-29T16:35:11;5;5;3
66159;PMS5003;52960;50.810;20.620;2022-07-29T16:49:18;4;4;3
66159;PMS5003;52960;50.810;20.620;2022-07-29T16:56:03;4;4;3
66159;PMS5003;52960;50.810;20.620;2022-07-29T17:00:01;4;4;3
66159;PMS5003;52960;50.810;20.620;2022-07-29T17:07:03;4;4;3
66159;PMS5003;52960;50.810;20.620;2022-07-29T17:21:05;4;4;2
66159;PMS5003;52960;50.810;20.620;2022-07-29T17:28:17;4;4;2
66159;PMS5003;52960;50.810;20.620;2022-07-29T17:49:02;4;4;3
66159;PMS5003;52960;50.810;20.620;2022-07-29T17:56:06;4;4;3
66159;PMS5003;52960;50.810;20.620;2022-07-29T18:00:00;4;4;3
66159;PMS5003;52960;50.810;20.620;2022-07-29T18:07:05;4;4;3
66159;PMS5003;52960;50.810;20.620;2022-07-29T18:21:19;5;3;2
66159;PMS5003;52960;50.810;20.620;2022-07-29T18:28:18;5;3;2
66159;PMS5003;52960;50.810;20.620;2022-07-29T18:35:08;5;3;2
66159;PMS5003;52960;50.810;20.620;2022-07-29T18:42:17;5;3;2
66159;PMS5003;52960;50.810;20.620;2022-07-29T18:49:23;5;4;2
66159;PMS5003;52960;50.810;20.620;2022-07-29T18:56:02;5;4;2
66159;PMS5003;52960;50.810;20.620;2022-07-29T19:00:01;5;4;2
66159;PMS5003;52960;50.810;20.620;2022-07-29T19:07:22;5;4;2
66159;PMS5003;52960;50.810;20.620;2022-07-29T19:21:13;4;4;2
66159;PMS5003;52960;50.810;20.620;2022-07-29T19:28:02;4;4;2
66159;PMS5003;52960;50.810;20.620;2022-07-29T19:35:50;4;4;2
66159;PMS5003;52960;50.810;20.620;2022-07-29T19:42:10;4;4;2
66159;PMS5003;52960;50.810;20.620;2022-07-29T19:49:19;4;4;2
66159;PMS5003;52960;50.810;20.620;2022-07-29T19:56:18;4;4;2
66159;PMS5003;52960;50.810;20.620;2022-07-29T20:00:25;4;4;2
66159;PMS5003;52960;50.810;20.620;2022-07-29T20:07:04;4;4;2
66159;PMS5003;52960;50.810;20.620;2022-07-29T20:21:15;4;4;3
66159;PMS5003;52960;50.810;20.620;2022-07-29T20:28:14;4;4;3
66159;PMS5003;52960;50.810;20.620;2022-07-29T20:35:02;4;4;3
66159;PMS5003;52960;50.810;20.620;2022-07-29T20:42:01;4;4;3
66159;PMS5003;52960;50.810;20.620;2022-07-29T20:49:04;3;3;2
66159;PMS5003;52960;50.810;20.620;2022-07-29T20:56:02;3;3;2
66159;PMS5003;52960;50.810;20.620;2022-07-29T21:00:13;3;3;2
66159;PMS5003;52960;50.810;20.620;2022-07-29T21:07:06;3;3;2
66159;PMS5003;52960;50.810;20.620;2022-07-29T21:14:47;3;3;2
66159;PMS5003;52960;50.810;20.620;2022-07-29T21:21:07;4;2;2
66159;PMS5003;52960;50.810;20.620;2022-07-29T21:35:06;4;2;2
66159;PMS5003;52960;50.810;20.620;2022-07-29T21:42:03;4;2;2
66159;PMS5003;52960;50.810;20.620;2022-07-29T21:49:18;3;2;1
66159;PMS5003;52960;50.810;20.620;2022-07-29T21:56:18;3;2;1
66159;PMS5003;52960;50.810;20.620;2022-07-29T22:00:25;3;2;1
66159;PMS5003;52960;50.810;20.620;2022-07-29T22:07:16;3;2;1
66159;PMS5003;52960;50.810;20.620;2022-07-29T22:14:02;4;3;2
66159;PMS5003;52960;50.810;20.620;2022-07-29T22:21:15;4;3;2
66159;PMS5003;52960;50.810;20.620;2022-07-29T22:28:19;4;3;2
66159;PMS5003;52960;50.810;20.620;2022-07-29T22:35:03;4;4;2
66159;PMS5003;52960;50.810;20.620;2022-07-29T22:42:18;4;4;2
66159;PMS5003;52960;50.810;20.620;2022-07-29T22:49:19;4;4;2
66159;PMS5003;52960;50.810;20.620;2022-07-29T22:56:07;4;4;2
66159;PMS5003;52960;50.810;20.620;2022-07-29T23:07:15;7;5;3
66159;PMS5003;52960;50.810;20.620;2022-07-29T23:14:04;7;5;3
66159;PMS5003;52960;50.810;20.620;2022-07-29T23:21:03;7;5;3
66159;PMS5003;52960;50.810;20.620;2022-07-29T23:28:05;7;5;3
66159;PMS5003;52960;50.810;20.620;2022-07-29T23:42:07;3;3;3
66159;PMS5003;52960;50.810;20.620;2022-07-29T23:49:19;3;3;3
66159;PMS5003;52960;50.810;20.620;2022-07-29T23:56:08;3;3;3
